Live from Altenrhein
LIVE
LSZR 281950Z AUTO VRB02KT 8000 RA BKN/// 20/13 Q1016

People´s C-Office:

T: +41 (0)71 858 51 65

E: c-office@peoples.ch

Why Altenrhein?

The advantages of the only Airport in eastern Switzerland.

No Slots / PPR

A clear advantage in Altenrhein: no slots / PPR allocations necessary.

 

Location

The airport ist well situated by the Lake of Constance, close to Liechtenstein and the Austrian and German borders. Fast access to highways, short distances to important business areas and famous ski resorts.

 

Flexibility

Our compact operation and short distances makes us extremely flexible, our level of quality follows international standards.

 

Handling

Handling private and business flights with discretion and uncomplicated procedures is our speciality.

 

Services

Do not worry about anything while you stay in Altenrhein: Full ground assistance, day aircraft parking, 3rd party liaison, crew lounge, one day crew car and more are included our regular services.

 

Parking

Parking is always available, hangar space O/R.

 

And further:

  • Lower hangar prices than at other airports
  • Fast refuelling
  • No waiting periods for pax
  • Short distance from limousine to aircraft for passengers
  • Comfortable Lounge
  • Simple and quick handling services
  • No parking-fee for a/c during the day
  • Apron Access for VIP